createdAt,value
2022-09-12T00:00:15.942Z,22.51
2022-09-12T00:02:42.800Z,22.48
2022-09-12T00:05:09.791Z,22.48
2022-09-12T00:07:36.736Z,22.34
2022-09-12T00:10:04.376Z,22.57
2022-09-12T00:12:31.797Z,22.45
2022-09-12T00:14:59.368Z,23.20
2022-09-12T00:17:26.464Z,22.55
2022-09-12T00:19:53.454Z,22.55
2022-09-12T00:22:20.745Z,22.57
2022-09-12T00:24:47.645Z,22.38
2022-09-12T00:27:14.558Z,22.29
2022-09-12T00:29:41.558Z,22.12
2022-09-12T00:32:08.517Z,22.26
2022-09-12T00:34:36.632Z,22.71
2022-09-12T00:37:04.130Z,22.78
2022-09-12T00:39:31.039Z,22.19
2022-09-12T00:41:58.482Z,22.20
2022-09-12T00:44:25.227Z,22.23
2022-09-12T00:47:01.140Z,22.45
2022-09-12T00:49:48.481Z,22.42
2022-09-12T00:52:22.718Z,22.32
2022-09-12T00:55:14.137Z,22.36
2022-09-12T00:57:52.247Z,22.26
2022-09-12T01:00:22.579Z,22.16
2022-09-12T01:02:54.289Z,22.21
2022-09-12T01:05:24.038Z,22.55
2022-09-12T01:07:51.858Z,22.16
2022-09-12T01:10:19.799Z,22.11
2022-09-12T01:12:48.015Z,22.14
2022-09-12T01:15:15.092Z,22.09
2022-09-12T01:18:07.775Z,22.25
2022-09-12T01:21:11.606Z,22.27
2022-09-12T01:24:24.608Z,22.41
2022-09-12T01:27:03.915Z,22.19
2022-09-12T01:30:08.023Z,22.51
2022-09-12T01:33:11.654Z,22.35
2022-09-12T01:36:26.617Z,22.32
2022-09-12T01:39:06.591Z,22.26
2022-09-12T01:42:10.172Z,22.23
2022-09-12T01:44:48.213Z,22.03
2022-09-12T01:47:34.090Z,22.10
2022-09-12T01:50:18.684Z,22.08
2022-09-12T01:53:12.801Z,22.13
2022-09-12T01:55:50.091Z,22.14
2022-09-12T01:58:30.025Z,22.10
2022-09-12T02:01:22.589Z,21.86
2022-09-12T02:04:04.447Z,21.75
2022-09-12T02:06:50.354Z,21.82
2022-09-12T02:09:37.251Z,21.78
2022-09-12T02:12:08.856Z,21.88
2022-09-12T02:14:46.580Z,21.94
2022-09-12T02:17:16.646Z,21.84
2022-09-12T02:19:51.308Z,21.93
2022-09-12T02:22:21.810Z,21.81
2022-09-12T02:24:54.299Z,21.90
2022-09-12T02:27:42.368Z,21.94
2022-09-12T02:30:10.919Z,21.88
2022-09-12T02:33:03.983Z,21.99
2022-09-12T02:35:43.799Z,21.86
2022-09-12T02:38:20.406Z,21.86
2022-09-12T02:40:47.459Z,21.70
2022-09-12T02:43:14.331Z,21.66
2022-09-12T02:45:41.509Z,21.62
2022-09-12T02:48:20.175Z,21.68
2022-09-12T02:50:47.319Z,21.60
2022-09-12T02:53:14.578Z,21.50
2022-09-12T02:55:42.953Z,21.48
2022-09-12T02:58:19.263Z,21.58
2022-09-12T03:01:29.651Z,21.58
2022-09-12T03:04:44.455Z,21.70
2022-09-12T03:07:21.860Z,21.51
2022-09-12T03:10:05.421Z,21.49
2022-09-12T03:13:06.240Z,21.54
2022-09-12T03:15:53.993Z,21.46
2022-09-12T03:18:42.056Z,21.51
2022-09-12T03:21:30.346Z,21.59
2022-09-12T03:24:09.385Z,21.49
2022-09-12T03:26:57.738Z,21.47
2022-09-12T03:29:26.248Z,21.40
2022-09-12T03:31:57.757Z,21.23
2022-09-12T03:34:27.171Z,21.07
2022-09-12T03:36:55.502Z,20.91
2022-09-12T03:39:27.898Z,20.93
2022-09-12T03:41:55.884Z,20.99
2022-09-12T03:44:23.942Z,21.05
2022-09-12T03:46:51.217Z,20.92
2022-09-12T03:49:18.379Z,20.89
2022-09-12T03:51:45.290Z,20.88
2022-09-12T03:54:12.616Z,21.02
2022-09-12T03:56:41.151Z,21.09
2022-09-12T03:59:08.189Z,20.97
2022-09-12T04:01:35.421Z,21.14
2022-09-12T04:04:02.682Z,21.04
2022-09-12T04:06:29.791Z,20.98
2022-09-12T04:08:57.262Z,21.01
2022-09-12T04:11:24.243Z,20.93
2022-09-12T04:13:51.289Z,20.70
2022-09-12T04:16:19.052Z,20.78
2022-09-12T04:18:47.020Z,20.86
2022-09-12T04:21:21.703Z,20.92
2022-09-12T04:23:49.099Z,20.83
2022-09-12T04:26:17.852Z,20.82
2022-09-12T04:28:46.336Z,21.11
2022-09-12T04:31:18.003Z,20.95
2022-09-12T04:33:46.259Z,21.02
2022-09-12T04:36:18.025Z,20.74
2022-09-12T04:38:47.160Z,20.67
2022-09-12T04:41:16.185Z,20.66
2022-09-12T04:43:46.634Z,20.64
2022-09-12T04:46:16.681Z,20.65
2022-09-12T04:48:44.160Z,20.52
2022-09-12T04:51:16.160Z,20.71
2022-09-12T04:53:47.719Z,20.78
2022-09-12T04:56:14.816Z,20.66
2022-09-12T04:58:41.981Z,20.47
2022-09-12T05:01:18.590Z,20.89
2022-09-12T05:03:47.398Z,20.76
2022-09-12T05:06:23.914Z,20.83
2022-09-12T05:08:52.396Z,20.63
2022-09-12T05:11:25.500Z,20.51
2022-09-12T05:13:55.322Z,20.34
2022-09-12T05:16:23.986Z,20.57
2022-09-12T05:18:50.967Z,20.35
2022-09-12T05:21:21.321Z,20.59
2022-09-12T05:23:57.594Z,20.70
2022-09-12T05:26:24.746Z,20.52
2022-09-12T05:28:53.067Z,20.43
2022-09-12T05:31:26.218Z,20.61
2022-09-12T05:33:55.414Z,20.54
2022-09-12T05:36:30.682Z,20.52
2022-09-12T05:38:59.752Z,20.54
2022-09-12T05:41:33.976Z,20.60
2022-09-12T05:44:04.201Z,20.59
2022-09-12T05:46:37.337Z,20.60
2022-09-12T05:49:11.401Z,20.62
2022-09-12T05:51:43.029Z,20.52
2022-09-12T05:54:14.007Z,20.40
2022-09-12T05:56:43.084Z,20.65
2022-09-12T05:59:19.858Z,20.75
2022-09-12T06:01:47.527Z,20.34
2022-09-12T06:04:14.698Z,20.28
2022-09-12T06:06:48.613Z,20.42
2022-09-12T06:09:17.021Z,20.47
2022-09-12T06:11:46.199Z,20.54
2022-09-12T06:14:15.969Z,20.54
2022-09-12T06:16:43.132Z,20.45
2022-09-12T06:19:19.824Z,20.60
2022-09-12T06:21:48.288Z,20.48
2022-09-12T06:24:17.543Z,20.50
2022-09-12T06:26:44.966Z,20.48
2022-09-12T06:29:13.246Z,20.68
2022-09-12T06:31:42.241Z,20.71
2022-09-12T06:34:13.938Z,20.81
2022-09-12T06:36:44.768Z,20.79
2022-09-12T06:39:17.893Z,20.60
2022-09-12T06:41:45.597Z,20.58
2022-09-12T06:44:16.689Z,20.83
2022-09-12T06:46:44.398Z,20.68
2022-09-12T06:49:12.133Z,20.48
2022-09-12T06:51:39.282Z,20.44
2022-09-12T06:54:06.186Z,20.53
2022-09-12T06:56:33.651Z,20.35
2022-09-12T06:59:00.561Z,20.21
2022-09-12T07:01:31.045Z,20.36
2022-09-12T07:04:04.016Z,20.54
2022-09-12T07:06:40.763Z,21.03
2022-09-12T07:09:11.330Z,20.78
2022-09-12T07:11:41.082Z,20.95
2022-09-12T07:14:12.735Z,20.83
2022-09-12T07:16:40.121Z,20.50
2022-09-12T07:19:08.479Z,20.40
2022-09-12T07:21:40.326Z,20.53
2022-09-12T07:24:10.002Z,20.66
2022-09-12T07:26:38.080Z,20.99
2022-09-12T07:29:25.514Z,20.77
2022-09-12T07:31:52.092Z,20.76
2022-09-12T07:34:19.215Z,21.03
2022-09-12T07:36:46.256Z,20.43
2022-09-12T07:39:13.180Z,20.67
2022-09-12T07:41:40.167Z,20.28
2022-09-12T07:44:07.228Z,20.91
2022-09-12T07:46:35.141Z,21.17
2022-09-12T07:49:02.989Z,21.51
2022-09-12T07:51:31.488Z,21.41
2022-09-12T07:53:59.428Z,20.97
2022-09-12T07:56:32.696Z,20.53
2022-09-12T07:59:01.694Z,20.35
2022-09-12T08:01:28.695Z,20.33
2022-09-12T08:04:00.344Z,20.74
2022-09-12T08:06:30.975Z,21.08
2022-09-12T08:08:59.376Z,21.12
2022-09-12T08:11:28.799Z,20.73
2022-09-12T08:13:58.055Z,20.57
2022-09-12T08:16:28.485Z,20.96
2022-09-12T08:18:55.661Z,21.18
2022-09-12T08:21:31.563Z,21.09
2022-09-12T08:24:04.943Z,21.36
2022-09-12T08:26:33.672Z,20.85
2022-09-12T08:29:01.414Z,21.04
2022-09-12T08:31:28.612Z,21.63
2022-09-12T08:33:58.968Z,21.31
2022-09-12T08:36:28.030Z,21.84
2022-09-12T08:39:02.673Z,21.84
2022-09-12T08:41:47.885Z,21.73
2022-09-12T08:44:59.889Z,22.04
2022-09-12T08:47:33.022Z,21.97
2022-09-12T08:50:09.518Z,22.15
2022-09-12T08:52:58.424Z,23.08
2022-09-12T08:55:44.858Z,22.65
2022-09-12T08:58:16.084Z,22.49
2022-09-12T09:00:55.776Z,22.56
2022-09-12T09:04:01.421Z,22.40
2022-09-12T09:07:02.554Z,22.61
2022-09-12T09:10:09.252Z,22.52
2022-09-12T09:13:04.774Z,22.57
2022-09-12T09:16:16.095Z,23.09
2022-09-12T09:18:46.074Z,22.94
2022-09-12T09:21:33.586Z,23.55
2022-09-12T09:24:14.281Z,23.57
2022-09-12T09:26:49.617Z,23.19
2022-09-12T09:29:23.676Z,23.36
2022-09-12T09:31:55.848Z,23.15
2022-09-12T09:34:26.244Z,23.46
2022-09-12T09:37:19.576Z,23.08
2022-09-12T09:40:15.712Z,23.79
2022-09-12T09:43:16.946Z,23.51
2022-09-12T09:45:47.308Z,23.21
2022-09-12T09:48:46.731Z,24.20
2022-09-12T09:51:17.795Z,23.05
2022-09-12T09:54:23.566Z,23.64
2022-09-12T09:56:51.075Z,24.18
2022-09-12T09:59:31.263Z,23.80
2022-09-12T10:02:03.779Z,24.61
2022-09-12T10:04:41.076Z,24.65
2022-09-12T10:07:19.638Z,24.41
2022-09-12T10:10:11.136Z,24.77
2022-09-12T10:12:38.157Z,24.76
2022-09-12T10:15:26.475Z,24.98
2022-09-12T10:17:55.826Z,24.67
2022-09-12T10:20:44.682Z,24.47
2022-09-12T10:23:45.216Z,24.98
2022-09-12T10:26:16.238Z,25.85
2022-09-12T10:28:52.417Z,25.43
2022-09-12T10:31:41.492Z,25.70
2022-09-12T10:34:30.542Z,25.34
2022-09-12T10:37:19.666Z,24.86
2022-09-12T10:39:55.119Z,24.64
2022-09-12T10:42:50.310Z,25.68
2022-09-12T10:45:24.665Z,25.79
2022-09-12T10:47:53.768Z,26.13
2022-09-12T10:50:30.249Z,24.93
2022-09-12T10:53:20.454Z,24.83
2022-09-12T10:56:13.702Z,25.70
2022-09-12T10:59:19.956Z,26.19
2022-09-12T11:02:15.690Z,26.02
2022-09-12T11:04:46.734Z,26.13
2022-09-12T11:07:46.816Z,26.53
2022-09-12T11:11:00.089Z,26.74
2022-09-12T11:13:47.735Z,26.74
2022-09-12T11:16:41.084Z,26.36
2022-09-12T11:19:37.323Z,27.06
2022-09-12T11:22:28.731Z,27.68
2022-09-12T11:25:10.476Z,28.03
2022-09-12T11:27:52.205Z,29.88
2022-09-12T11:30:19.061Z,30.38
2022-09-12T11:33:05.786Z,30.94
2022-09-12T11:35:35.842Z,31.92
2022-09-12T11:38:33.002Z,31.84
2022-09-12T11:41:06.469Z,32.16
2022-09-12T11:44:01.197Z,31.61
2022-09-12T11:46:35.008Z,30.63
2022-09-12T11:49:13.700Z,30.49
2022-09-12T11:52:15.965Z,30.71
2022-09-12T11:54:53.867Z,32.57
2022-09-12T11:57:46.109Z,33.62
2022-09-12T12:00:38.136Z,34.59
2022-09-12T12:03:23.703Z,32.96
2022-09-12T12:06:04.939Z,31.20
2022-09-12T12:08:41.082Z,31.52
2022-09-12T12:11:09.083Z,31.67
2022-09-12T12:13:56.226Z,32.05
2022-09-12T12:16:35.215Z,32.57
2022-09-12T12:19:27.334Z,34.06
2022-09-12T12:21:54.337Z,33.32
2022-09-12T12:24:24.187Z,32.89
2022-09-12T12:26:53.612Z,34.81
2022-09-12T12:29:20.521Z,33.92
2022-09-12T12:31:59.418Z,33.95
2022-09-12T12:34:46.193Z,33.17
2022-09-12T12:37:19.034Z,35.03
2022-09-12T12:39:46.759Z,36.27
2022-09-12T12:42:35.437Z,34.54
2022-09-12T12:45:04.456Z,36.43
2022-09-12T12:47:46.254Z,36.27
2022-09-12T12:50:21.789Z,36.92
2022-09-12T12:52:55.653Z,35.54
2022-09-12T12:55:31.253Z,34.76
2022-09-12T12:58:01.312Z,37.38
2022-09-12T13:00:39.830Z,36.86
2022-09-12T13:03:06.864Z,36.48
2022-09-12T13:05:54.368Z,36.86
2022-09-12T13:08:31.682Z,37.44
2022-09-12T13:11:07.778Z,37.91
2022-09-12T13:13:58.265Z,37.71
2022-09-12T13:16:37.358Z,38.61
2022-09-12T13:19:14.945Z,40.12
2022-09-12T13:22:07.836Z,37.96
2022-09-12T13:24:44.649Z,38.07
2022-09-12T13:27:25.693Z,38.53
2022-09-12T13:30:15.209Z,38.66
2022-09-12T13:32:43.576Z,36.53
2022-09-12T13:35:34.218Z,39.45
2022-09-12T13:38:32.824Z,36.58
2022-09-12T13:41:36.765Z,36.46
2022-09-12T13:44:09.756Z,38.92
2022-09-12T13:46:37.298Z,40.28
2022-09-12T13:49:35.994Z,39.20
2022-09-12T13:52:21.236Z,38.41
2022-09-12T13:54:52.313Z,38.53
2022-09-12T13:57:38.425Z,37.31
2022-09-12T14:00:22.324Z,36.94
2022-09-12T14:02:49.444Z,33.60
2022-09-12T14:05:25.791Z,31.75
2022-09-12T14:08:00.438Z,31.56
2022-09-12T14:10:40.807Z,31.66
2022-09-12T14:13:22.324Z,32.14
2022-09-12T14:15:52.999Z,31.49
2022-09-12T14:18:30.134Z,31.14
2022-09-12T14:21:06.151Z,30.95
2022-09-12T14:23:36.661Z,30.66
2022-09-12T14:26:11.411Z,30.97
2022-09-12T14:28:42.242Z,32.17
2022-09-12T14:31:18.384Z,31.13
2022-09-12T14:34:12.341Z,30.75
2022-09-12T14:36:56.112Z,30.49
2022-09-12T14:39:33.080Z,31.86
2022-09-12T14:42:20.964Z,31.25
2022-09-12T14:45:01.301Z,31.23
2022-09-12T14:47:38.706Z,30.57
2022-09-12T14:50:20.387Z,30.86
2022-09-12T14:53:03.090Z,31.33
2022-09-12T14:55:33.636Z,31.29
2022-09-12T14:58:29.932Z,31.12
2022-09-12T15:01:05.906Z,31.30
2022-09-12T15:03:36.795Z,30.11
2022-09-12T15:06:09.637Z,30.82
2022-09-12T15:08:36.619Z,30.30
2022-09-12T15:11:07.130Z,30.60
2022-09-12T15:13:41.678Z,30.66
2022-09-12T15:16:11.668Z,30.14
2022-09-12T15:18:39.135Z,29.52
2022-09-12T15:21:08.694Z,30.11
2022-09-12T15:23:48.142Z,29.97
2022-09-12T15:26:19.400Z,30.68
2022-09-12T15:28:46.691Z,29.82
2022-09-12T15:31:26.695Z,29.76
2022-09-12T15:33:54.956Z,29.85
2022-09-12T15:36:23.489Z,28.76
2022-09-12T15:38:51.124Z,29.06
2022-09-12T15:41:22.004Z,28.77
2022-09-12T15:43:50.323Z,28.73
2022-09-12T15:46:19.002Z,29.76
2022-09-12T15:48:46.606Z,29.99
2022-09-12T15:51:18.622Z,29.50
2022-09-12T15:53:46.923Z,29.69
2022-09-12T15:56:16.807Z,30.55
2022-09-12T15:58:57.860Z,29.91
2022-09-12T16:01:25.731Z,28.80
2022-09-12T16:04:00.287Z,29.71
2022-09-12T16:06:33.553Z,29.77
2022-09-12T16:09:02.060Z,29.11
2022-09-12T16:11:29.030Z,29.64
2022-09-12T16:13:56.921Z,29.13
2022-09-12T16:16:23.963Z,28.83
2022-09-12T16:18:54.375Z,29.45
2022-09-12T16:21:21.330Z,29.39
2022-09-12T16:23:48.709Z,29.65
2022-09-12T16:26:16.826Z,30.44
2022-09-12T16:28:44.256Z,29.51
2022-09-12T16:31:13.805Z,29.56
2022-09-12T16:33:42.934Z,29.56
2022-09-12T16:36:13.849Z,29.59
2022-09-12T16:38:51.059Z,29.37
2022-09-12T16:41:21.164Z,29.86
2022-09-12T16:43:48.753Z,29.26
2022-09-12T16:46:20.640Z,28.88
2022-09-12T16:48:54.468Z,29.95
2022-09-12T16:51:25.869Z,30.14
2022-09-12T16:53:54.311Z,28.46
2022-09-12T16:56:21.573Z,28.96
2022-09-12T16:58:49.011Z,28.92
2022-09-12T17:01:20.165Z,28.67
2022-09-12T17:03:55.670Z,29.20
2022-09-12T17:06:27.114Z,29.40
2022-09-12T17:08:58.165Z,28.74
2022-09-12T17:11:32.514Z,29.29
2022-09-12T17:14:05.822Z,29.26
2022-09-12T17:16:36.665Z,28.56
2022-09-12T17:19:04.505Z,27.92
2022-09-12T17:21:31.667Z,28.02
2022-09-12T17:23:59.330Z,28.34
2022-09-12T17:26:26.793Z,29.75
2022-09-12T17:28:53.825Z,29.51
2022-09-12T17:31:21.085Z,29.64
2022-09-12T17:33:48.241Z,30.15
2022-09-12T17:36:17.835Z,29.61
2022-09-12T17:38:46.945Z,29.21
2022-09-12T17:41:23.440Z,29.37
2022-09-12T17:43:56.503Z,28.78
2022-09-12T17:46:36.794Z,29.19
2022-09-12T17:49:07.842Z,29.03
2022-09-12T17:51:35.310Z,28.84
2022-09-12T17:54:16.360Z,28.89
2022-09-12T17:56:45.984Z,28.95
2022-09-12T17:59:21.933Z,29.00
2022-09-12T18:02:07.915Z,28.47
2022-09-12T18:04:34.892Z,27.86
2022-09-12T18:07:02.231Z,28.24
2022-09-12T18:09:30.866Z,28.06
2022-09-12T18:11:58.436Z,28.02
2022-09-12T18:14:28.505Z,28.02
2022-09-12T18:16:57.109Z,28.11
2022-09-12T18:19:25.039Z,28.30
2022-09-12T18:21:51.975Z,27.99
2022-09-12T18:24:19.176Z,27.98
2022-09-12T18:26:46.126Z,27.90
2022-09-12T18:29:16.801Z,27.79
2022-09-12T18:31:44.584Z,27.66
2022-09-12T18:34:14.877Z,28.13
2022-09-12T18:36:44.401Z,27.84
2022-09-12T18:39:12.701Z,28.05
2022-09-12T18:41:40.671Z,28.38
2022-09-12T18:44:10.519Z,28.02
2022-09-12T18:46:40.282Z,27.75
2022-09-12T18:49:09.508Z,28.25
2022-09-12T18:51:39.906Z,28.22
2022-09-12T18:54:13.002Z,28.10
2022-09-12T18:56:43.472Z,27.01
2022-09-12T18:59:13.015Z,26.74
2022-09-12T19:01:40.346Z,26.64
2022-09-12T19:04:09.895Z,26.71
2022-09-12T19:06:43.555Z,26.60
2022-09-12T19:09:13.151Z,26.18
2022-09-12T19:11:48.698Z,26.16
2022-09-12T19:14:26.127Z,26.37
2022-09-12T19:16:53.760Z,26.46
2022-09-12T19:19:21.283Z,26.36
2022-09-12T19:21:48.195Z,26.22
2022-09-12T19:24:17.616Z,26.52
2022-09-12T19:26:45.552Z,26.18
2022-09-12T19:29:13.845Z,26.36
2022-09-12T19:31:40.952Z,26.46
2022-09-12T19:34:08.683Z,26.06
2022-09-12T19:36:51.707Z,26.66
2022-09-12T19:39:19.977Z,27.05
2022-09-12T19:41:47.547Z,27.16
2022-09-12T19:44:14.754Z,27.35
2022-09-12T19:46:41.942Z,27.24
2022-09-12T19:49:11.807Z,26.40
2022-09-12T19:51:38.925Z,26.54
2022-09-12T19:54:06.129Z,26.55
2022-09-12T19:56:33.518Z,26.41
2022-09-12T19:59:00.478Z,26.31
2022-09-12T20:01:28.458Z,26.11
2022-09-12T20:03:57.347Z,26.35
2022-09-12T20:06:25.121Z,26.70
2022-09-12T20:08:52.013Z,26.27
2022-09-12T20:11:21.639Z,26.62
2022-09-12T20:13:48.983Z,26.05
2022-09-12T20:16:29.081Z,27.55
2022-09-12T20:19:02.729Z,27.27
2022-09-12T20:21:32.204Z,27.18
2022-09-12T20:24:10.487Z,27.60
2022-09-12T20:26:37.761Z,27.38
2022-09-12T20:29:06.325Z,27.67
2022-09-12T20:31:34.752Z,27.41
2022-09-12T20:34:02.012Z,27.16
2022-09-12T20:36:29.031Z,27.01
2022-09-12T20:39:00.188Z,27.20
2022-09-12T20:41:30.790Z,27.38
2022-09-12T20:43:58.138Z,27.45
2022-09-12T20:46:27.095Z,27.24
2022-09-12T20:48:54.831Z,26.34
2022-09-12T20:51:22.564Z,26.23
2022-09-12T20:54:11.131Z,26.82
2022-09-12T20:56:38.339Z,27.10
2022-09-12T20:59:05.953Z,26.03
2022-09-12T21:01:33.225Z,26.12
2022-09-12T21:04:01.227Z,26.03
2022-09-12T21:06:28.379Z,25.71
2022-09-12T21:09:00.517Z,26.07
2022-09-12T21:11:28.701Z,26.37
2022-09-12T21:13:55.819Z,27.01
2022-09-12T21:16:23.624Z,26.96
2022-09-12T21:18:59.506Z,26.55
2022-09-12T21:21:26.913Z,26.34
2022-09-12T21:23:57.707Z,25.36
2022-09-12T21:26:24.746Z,25.42
2022-09-12T21:28:51.620Z,25.68
2022-09-12T21:31:18.598Z,25.33
2022-09-12T21:33:45.634Z,25.57
2022-09-12T21:36:12.602Z,25.46
2022-09-12T21:38:39.499Z,25.47
2022-09-12T21:41:12.403Z,25.69
2022-09-12T21:43:39.575Z,25.20
2022-09-12T21:46:08.091Z,25.22
2022-09-12T21:48:35.886Z,25.10
2022-09-12T21:51:03.591Z,25.19
2022-09-12T21:53:31.095Z,25.97
2022-09-12T21:56:07.428Z,25.21
2022-09-12T21:58:35.995Z,24.86
2022-09-12T22:01:04.691Z,25.25
2022-09-12T22:03:32.146Z,25.09
2022-09-12T22:06:02.119Z,25.19
2022-09-12T22:08:30.979Z,25.15
2022-09-12T22:11:00.687Z,24.93
2022-09-12T22:13:31.341Z,25.06
2022-09-12T22:15:58.640Z,25.07
2022-09-12T22:18:25.806Z,24.92
2022-09-12T22:21:19.713Z,25.12
2022-09-12T22:24:05.668Z,25.05
2022-09-12T22:26:42.146Z,24.88
2022-09-12T22:29:10.385Z,24.84
2022-09-12T22:31:38.209Z,24.63
2022-09-12T22:34:06.111Z,24.74
2022-09-12T22:36:36.989Z,24.63
2022-09-12T22:39:06.096Z,24.62
2022-09-12T22:41:33.031Z,25.01
2022-09-12T22:43:59.963Z,24.86
2022-09-12T22:46:27.573Z,24.55
2022-09-12T22:48:55.637Z,24.68
2022-09-12T22:51:22.810Z,24.55
2022-09-12T22:53:49.787Z,24.87
2022-09-12T22:56:17.143Z,24.81
2022-09-12T22:58:44.067Z,24.33
2022-09-12T23:01:11.621Z,24.35
2022-09-12T23:03:38.687Z,24.49
2022-09-12T23:06:06.464Z,24.40
2022-09-12T23:08:36.170Z,24.57
2022-09-12T23:11:10.838Z,24.56
2022-09-12T23:13:39.095Z,24.95
2022-09-12T23:16:08.083Z,24.87
2022-09-12T23:18:36.167Z,24.41
2022-09-12T23:21:07.681Z,24.82
2022-09-12T23:23:35.833Z,24.63
2022-09-12T23:26:04.794Z,24.61
2022-09-12T23:28:32.245Z,24.43
2022-09-12T23:31:00.443Z,24.70
2022-09-12T23:33:29.489Z,24.63
2022-09-12T23:36:12.805Z,25.09
2022-09-12T23:38:41.604Z,24.78
2022-09-12T23:41:09.647Z,24.98
2022-09-12T23:43:37.002Z,25.14
2022-09-12T23:46:04.651Z,25.38
2022-09-12T23:48:32.269Z,25.56
2022-09-12T23:51:00.084Z,25.67
2022-09-12T23:53:27.644Z,25.75
2022-09-12T23:55:54.635Z,25.90
2022-09-12T23:58:22.710Z,25.64
